• Join FlightAware (Why Join?)
  • Login
  • US Flag 
11:38AM EST


 

Airport Tracker/Info


-or-


 

Live Flight TrackerFlight Track Log ✈ SKW6306 ✈ 30-Jun-2013 ✈ CYXE - KDEN

Flight Track Log - Related Links

Times and Time Zones

All times are in EDT time to prevent confusion due to time zone crossing. See the SKW6306 flight status page for this flight to view local times or setup timezone preferences in your user account.

Time Position Orientation Groundspeed Altitude Reporting Facility
EDT Latitude Longitude Course Direction KTS MPH feet Rate Location/Type
05:36PM 52.1500 -106.6167 90° East 190 219 4,000  Level Winnipeg Center
05:37PM 52.1333 -106.5333 108° East 200 230 6,600 2,160 Climbing Winnipeg Center
05:38PM 52.0667 -106.5667 197° South 230 265 8,400 1,740 Climbing Winnipeg Center
05:39PM 51.6931 -106.9536 197° South  Level FlightAware Approximate
05:39PM 52.0167 -106.6167 212° Southwest 270 311 10,100  Level Winnipeg Center
05:40PM 51.5737 -106.9249 172° South  Level Estimated
05:40PM 51.9167 -106.6500 192° South 290 334 12,100  Level Winnipeg Center
05:41PM 51.8500 -106.7167 212° Southwest 300 345 14,200 1,680 Climbing Winnipeg Center
05:42PM 51.7667 -106.7833 206° Southwest 320 368 15,500 1,260 Climbing Winnipeg Center
05:43PM 51.6667 -106.8167 192° South 330 380 16,800 1,140 Climbing Winnipeg Center
05:44PM 51.6000 -106.8833 212° Southwest 350 403 17,800 960 Climbing Winnipeg Center
05:45PM 51.5000 -106.9333 197° South 360 414 18,800 1,080 Climbing Winnipeg Center
05:46PM 51.4000 -107.0000 203° Southwest 360 414 20,000 900 Climbing Winnipeg Center
05:47PM 51.3000 -107.0500 197° South 360 414 20,700 660 Climbing Winnipeg Center
05:48PM 51.2167 -107.1167 207° Southwest 370 426 21,400 780 Climbing Winnipeg Center
05:49PM 51.1000 -107.2000 204° Southwest 380 437 22,300 840 Climbing Winnipeg Center
05:50PM 51.0167 -107.2500 201° Southwest 390 449 23,100 780 Climbing Winnipeg Center
05:51PM 50.9167 -107.3167 203° Southwest 390 449 23,900 840 Climbing Winnipeg Center
05:52PM 50.8167 -107.4000 208° Southwest 400 460 24,800 780 Climbing Winnipeg Center
05:53PM 50.7000 -107.4500 195° South 400 460 25,500 720 Climbing Winnipeg Center
05:54PM 50.6000 -107.5167 203° Southwest 400 460 26,300 720 Climbing Winnipeg Center
05:55PM 50.5167 -107.5667 201° Southwest 400 460 27,000 600 Climbing Winnipeg Center
05:56PM 50.4000 -107.6500 204° Southwest 400 460 27,500 480 Climbing Winnipeg Center
05:57PM 50.3000 -107.7000 198° South 410 472 28,000 480 Climbing Winnipeg Center
05:58PM 50.1833 -107.7333 190° South 410 472 28,500 480 Climbing Winnipeg Center
05:59PM 50.0500 -107.7500 185° South 420 483 29,000 480 Climbing Winnipeg Center
06:00PM 49.9500 -107.7500 180° South 420 483 29,500 480 Climbing Winnipeg Center
06:01PM 49.8333 -107.7833 190° South 430 495 30,000 540 Climbing Winnipeg Center
06:02PM 49.7000 -107.7833 180° South 420 483 30,600 480 Climbing Winnipeg Center
06:03PM 49.6000 -107.8000 186° South 420 483 31,000 180 Climbing Winnipeg Center
06:04PM 49.4833 -107.8000 180° South 420 483 31,000  Level Winnipeg Center
06:05PM 49.3667 -107.8333 191° South 440 506 31,000  Level Winnipeg Center
06:06PM 49.2167 -107.8500 184° South 440 506 31,000  Level Winnipeg Center
06:07PM 49.1167 -107.8500 180° South 460 529 31,000  Level Winnipeg Center
06:08PM 48.9833 -107.8667 185° South 450 518 31,000  Level Winnipeg Center
06:09PM 48.8667 -107.9000 191° South 450 518 31,000  Level Winnipeg Center
06:10PM 48.7333 -107.8833 175° South 460 529 31,000  Level Winnipeg Center
06:11PM 48.6167 -107.9167 191° South 460 529 31,000  Level Winnipeg Center
06:12PM 48.4667 -107.9167 180° South 460 529 31,000  Level Winnipeg Center
06:13PM 48.3500 -107.9333 185° South 460 529 31,000  Level Winnipeg Center
06:14PM 48.2167 -107.9500 185° South 460 529 31,000  Level Winnipeg Center
06:15PM 48.1000 -107.9500 180° South 450 518 31,000  Level Winnipeg Center
06:16PM 47.9833 -107.9833 191° South 440 506 31,000  Level Winnipeg Center
06:16PM 47.9564 -107.9525 143° Southeast 448 516 31,000  Level Salt Lake Center
06:17PM 47.8325 -107.9653 184° South 447 514 31,000  Level Salt Lake Center
06:18PM 47.6853 -107.9814 184° South 444 511 31,000  Level Salt Lake Center
06:19PM 47.5619 -107.9933 184° South 444 511 31,000  Level Salt Lake Center
06:20PM 47.4386 -107.9753 174° South 451 519 31,000  Level Salt Lake Center
06:22PM 47.3156 -107.9311 166° South 453 521 31,000  Level Salt Lake Center
06:23PM 47.1919 -107.8864 166° South 454 522 31,000  Level Salt Lake Center
06:24PM 47.0592 -107.8383 166° South 458 527 31,000  Level Salt Lake Center
06:25PM 46.9358 -107.7939 166° South 458 527 31,000  Level Salt Lake Center
06:26PM 46.8122 -107.7492 166° South 459 528 31,000  Level Salt Lake Center
06:27PM 46.6889 -107.7044 166° South 459 528 31,000  Level Salt Lake Center
06:28PM 46.5436 -107.6497 165° South 458 527 31,000  Level Salt Lake Center
06:29PM 46.4194 -107.6064 166° South 463 533 31,000  Level Salt Lake Center
06:30PM 46.2856 -107.5592 166° South 460 529 31,000  Level Salt Lake Center
06:31PM 46.1617 -107.5147 166° South 462 532 31,000  Level Salt Lake Center
06:32PM 46.0269 -107.4667 166° South 463 533 31,000  Level Salt Lake Center
06:33PM 45.9028 -107.4242 167° South 465 535 31,000  Level Salt Lake Center
06:34PM 45.7686 -107.3769 166° South 466 536 31,000  Level Salt Lake Center
06:35PM 45.6428 -107.3344 167° South 469 540 31,000  Level Salt Lake Center
06:36PM 45.5194 -107.2917 166° South 462 532 31,000  Level Salt Lake Center
06:37PM 45.3906 -107.2475 166° South 463 533 31,000  Level Salt Lake Center
06:38PM 45.2683 -107.2078 167° South 453 521 31,000  Level Salt Lake Center
06:39PM 45.1383 -107.1636 167° South 463 533 31,000  Level Salt Lake Center
06:40PM 44.9997 -107.1103 165° South 463 533 31,000  Level Salt Lake Center
06:42PM 44.7647 -106.9303 151° Southeast 464 534 31,000  Level Denver Center
06:43PM 44.6544 -106.8553 154° Southeast 461 531 31,000  Level Salt Lake Center
06:44PM 44.5442 -106.7761 153° Southeast 463 533 31,000  Level Salt Lake Center
06:45PM 44.4164 -106.6833 153° Southeast 464 534 31,000  Level Salt Lake Center
06:46PM 44.3061 -106.6031 152° Southeast 465 535 31,000  Level Salt Lake Center
06:47PM 44.1969 -106.5214 152° Southeast 466 536 31,000  Level Salt Lake Center
06:48PM 44.0700 -106.4250 151° Southeast 465 535 31,000  Level Salt Lake Center
06:49PM 43.9631 -106.3400 150° Southeast 465 535 31,000  Level Salt Lake Center
06:51PM 43.8011 -106.2125 150° Southeast 464 534 31,000  Level Denver Center
06:52PM 43.6775 -106.1117 149° Southeast 462 532 31,000  Level Denver Center
06:53PM 43.5519 -106.0158 151° Southeast 463 533 31,000  Level Denver Center
06:54PM 43.4269 -105.9192 151° Southeast 462 532 31,000  Level Denver Center
06:55PM 43.3183 -105.8372 151° Southeast 464 534 31,000  Level Denver Center
06:56PM 43.1764 -105.7256 150° Southeast 462 532 31,000  Level Denver Center
06:57PM 43.0692 -105.6375 149° Southeast 468 539 31,000  Level Denver Center
06:58PM 42.9450 -105.5328 148° Southeast 470 541 31,000  Level Denver Center
06:59PM 42.8392 -105.4431 148° Southeast 470 541 31,000  Level Denver Center
07:00PM 42.7147 -105.3397 149° Southeast 471 542 31,000  Level Denver Center
07:02PM 42.6083 -105.2514 149° Southeast 470 541 31,000  Level Denver Center
07:03PM 42.4692 -105.1322 148° Southeast 467 537 31,000  Level Denver Center
07:04PM 42.3553 -105.1458 185° South 454 522 31,000  Level Denver Center
07:05PM 42.2464 -105.2531 216° Southwest 437 503 31,000  Level Denver Center
07:06PM 42.1300 -105.2756 188° South 452 520 31,000  Level Denver Center
07:07PM 41.9739 -105.2967 186° South 444 511 31,000 -180 Level Denver Center
07:08PM 41.8550 -105.3094 185° South 446 513 30,700 -780 Descending Denver Center
07:09PM 41.7136 -105.3247 185° South 456 525 29,500 -1,140 Descending Denver Center
07:10PM 41.5964 -105.3147 176° South 443 510 28,400 -1,140 Descending Denver Center
07:11PM 41.4614 -105.2842 170° South 439 505 27,200 -840 Descending Denver Center
07:12PM 41.3494 -105.2536 168° South 430 495 26,700 -1,020 Descending Denver Center
07:13PM 41.2183 -105.2169 168° South 431 496 25,200 -1,320 Descending Denver Center
07:14PM 41.1025 -105.2089 177° South 435 501 24,000 -1,200 Descending Denver Center
07:15PM 40.9811 -105.2150 182° South 442 509 22,800 -1,020 Descending Denver Center
07:16PM 40.8569 -105.2214 182° South 448 516 22,000 -900 Descending Denver Center
07:17PM 40.7069 -105.2294 182° South 450 518 21,000 -900 Descending Denver Center
07:18PM 40.5853 -105.2364 182° South 441 507 20,200 -540 Descending Denver Center
07:19PM 40.4781 -105.2236 175° South 384 442 19,900 -780 Descending Denver Center
07:20PM 40.3947 -105.1581 149° Southeast 348 400 18,700 -1,320 Descending Denver Center
07:21PM 40.3003 -105.0825 149° Southeast 369 425 17,200 -1,440 Descending Denver Center
07:22PM 40.2161 -105.0161 149° Southeast 352 405 15,800 -1,200 Descending Denver Center
07:23PM 40.1372 -104.9536 149° Southeast 333 383 14,800 -1,020 Descending Denver Center
07:24PM 40.0508 -104.8847 149° Southeast 337 388 13,700 -1,080 Descending Denver Center
07:25PM 39.9708 -104.8206 148° Southeast 338 389 12,700 -1,080 Descending Denver Center
07:26PM 39.8789 -104.8081 174° South 315 362 11,600 -840 Descending Denver Center
07:28PM 39.7958 -104.8089 180° South 294 338 11,000 -780 Descending Denver Center
07:29PM 39.7242 -104.8042 177° South 231 266 10,100 -1,440 Descending Denver Center
07:30PM 39.6942 -104.7436 123° Southeast 214 246 8,100 -1,980 Descending Denver Center